createdAt,value
2022-12-20T00:01:44.800Z,1.52
2022-12-20T00:04:46.609Z,1.77
2022-12-20T00:07:48.373Z,1.63
2022-12-20T00:10:50.857Z,1.63
2022-12-20T00:13:52.839Z,1.53
2022-12-20T00:16:54.552Z,1.40
2022-12-20T00:19:56.524Z,1.45
2022-12-20T00:22:58.365Z,1.70
2022-12-20T00:26:27.373Z,1.90
2022-12-20T00:29:29.095Z,1.70
2022-12-20T00:32:30.954Z,1.42
2022-12-20T00:35:32.721Z,1.55
2022-12-20T00:38:36.447Z,1.67
2022-12-20T00:41:38.156Z,1.60
2022-12-20T00:44:39.914Z,1.58
2022-12-20T00:47:41.702Z,2.30
2022-12-20T00:50:43.451Z,1.85
2022-12-20T00:53:46.007Z,1.55
2022-12-20T00:56:47.763Z,1.47
2022-12-20T00:59:49.682Z,2.10
2022-12-20T01:02:51.611Z,1.73
2022-12-20T01:05:55.584Z,1.88
2022-12-20T01:08:58.667Z,1.80
2022-12-20T01:12:00.515Z,1.67
2022-12-20T01:15:03.254Z,1.67
2022-12-20T01:18:05.156Z,1.77
2022-12-20T01:21:10.172Z,1.70
2022-12-20T01:24:17.835Z,1.70
2022-12-20T01:27:19.775Z,1.77
2022-12-20T01:30:21.646Z,1.58
2022-12-20T01:33:24.054Z,1.73
2022-12-20T01:36:32.657Z,1.50
2022-12-20T01:39:34.439Z,1.90
2022-12-20T01:42:37.084Z,1.92
2022-12-20T01:45:39.166Z,1.75
2022-12-20T01:48:44.054Z,1.75
2022-12-20T01:51:50.592Z,1.48
2022-12-20T01:55:00.441Z,1.65
2022-12-20T01:58:12.707Z,1.88
2022-12-20T02:01:14.578Z,1.63
2022-12-20T02:04:16.543Z,1.60
2022-12-20T02:07:24.651Z,1.75
2022-12-20T02:10:41.335Z,1.67
2022-12-20T02:14:04.223Z,1.63
2022-12-20T02:17:33.647Z,1.50
2022-12-20T02:20:54.100Z,1.60
2022-12-20T02:24:20.863Z,1.60
2022-12-20T02:27:30.611Z,1.70
2022-12-20T02:30:37.257Z,1.90
2022-12-20T02:33:43.037Z,1.67
2022-12-20T02:36:44.761Z,1.95
2022-12-20T02:39:47.388Z,2.00
2022-12-20T02:42:53.682Z,1.95
2022-12-20T02:45:58.669Z,1.73
2022-12-20T02:49:05.067Z,1.95
2022-12-20T02:52:09.347Z,1.73
2022-12-20T02:55:11.428Z,1.90
2022-12-20T02:58:24.774Z,2.08
2022-12-20T03:01:34.880Z,1.67
2022-12-20T03:04:39.802Z,1.95
2022-12-20T03:07:41.537Z,2.20
2022-12-20T03:10:44.154Z,2.05
2022-12-20T03:13:46.123Z,2.00
2022-12-20T03:16:47.986Z,2.08
2022-12-20T03:19:50.002Z,1.80
2022-12-20T03:22:51.888Z,1.95
2022-12-20T03:25:53.848Z,1.70
2022-12-20T03:28:55.566Z,1.90
2022-12-20T03:31:57.377Z,1.80
2022-12-20T03:34:59.152Z,1.80
2022-12-20T03:38:01.184Z,2.03
2022-12-20T03:41:03.127Z,2.20
2022-12-20T03:44:05.099Z,1.85
2022-12-20T03:47:07.003Z,2.05
2022-12-20T03:50:09.458Z,1.80
2022-12-20T03:53:11.219Z,1.50
2022-12-20T03:56:13.396Z,2.10
2022-12-20T03:59:15.164Z,1.77
2022-12-20T04:02:17.401Z,1.73
2022-12-20T04:05:19.506Z,1.90
2022-12-20T04:08:21.508Z,2.00
2022-12-20T04:11:23.477Z,1.77
2022-12-20T04:14:25.272Z,1.80
2022-12-20T04:17:27.063Z,1.40
2022-12-20T04:20:28.899Z,1.70
2022-12-20T04:23:30.929Z,1.48
2022-12-20T04:26:33.235Z,1.55
2022-12-20T04:29:35.057Z,1.80
2022-12-20T04:32:37.450Z,1.65
2022-12-20T04:35:39.206Z,1.70
2022-12-20T04:38:41.045Z,1.90
2022-12-20T04:41:43.209Z,1.48
2022-12-20T04:44:44.946Z,1.48
2022-12-20T04:47:46.720Z,1.70
2022-12-20T04:50:49.596Z,1.42
2022-12-20T04:53:51.653Z,1.70
2022-12-20T04:56:53.360Z,1.70
2022-12-20T04:59:55.150Z,1.63
2022-12-20T05:02:57.117Z,1.90
2022-12-20T05:05:59.269Z,1.50
2022-12-20T05:09:01.547Z,1.70
2022-12-20T05:12:05.953Z,1.60
2022-12-20T05:15:11.028Z,1.55
2022-12-20T05:18:12.900Z,1.58
2022-12-20T05:21:33.782Z,1.73
2022-12-20T05:24:54.361Z,1.60
2022-12-20T05:27:56.535Z,1.60
2022-12-20T05:30:59.098Z,1.63
2022-12-20T05:34:01.018Z,1.70
2022-12-20T05:37:02.748Z,1.85
2022-12-20T05:40:05.161Z,1.20
2022-12-20T05:43:07.039Z,1.55
2022-12-20T05:46:09.243Z,1.35
2022-12-20T05:49:11.056Z,1.40
2022-12-20T05:52:12.869Z,1.40
2022-12-20T05:55:14.848Z,1.35
2022-12-20T05:58:17.302Z,1.10
2022-12-20T06:01:19.497Z,1.30
2022-12-20T06:04:21.372Z,1.20
2022-12-20T06:07:23.710Z,1.70
2022-12-20T06:10:26.774Z,1.50
2022-12-20T06:13:28.552Z,1.50
2022-12-20T06:16:30.593Z,1.27
2022-12-20T06:19:33.123Z,1.30
2022-12-20T06:22:35.284Z,1.33
2022-12-20T06:25:38.245Z,1.48
2022-12-20T06:28:42.851Z,1.38
2022-12-20T06:31:44.883Z,1.20
2022-12-20T06:34:46.944Z,1.52
2022-12-20T06:37:48.656Z,1.38
2022-12-20T06:40:50.652Z,1.50
2022-12-20T06:43:52.620Z,1.50
2022-12-20T06:46:54.604Z,1.45
2022-12-20T06:49:56.361Z,1.40
2022-12-20T06:52:58.100Z,1.55
2022-12-20T06:55:59.805Z,1.63
2022-12-20T06:59:02.228Z,1.63
2022-12-20T07:02:05.089Z,1.63
2022-12-20T07:05:07.555Z,1.23
2022-12-20T07:08:10.112Z,1.80
2022-12-20T07:11:12.346Z,1.33
2022-12-20T07:14:14.072Z,1.40
2022-12-20T07:17:16.045Z,1.60
2022-12-20T07:20:18.953Z,1.38
2022-12-20T07:23:20.846Z,1.42
2022-12-20T07:26:22.624Z,1.50
2022-12-20T07:29:25.785Z,1.60
2022-12-20T07:32:27.981Z,1.33
2022-12-20T07:35:29.767Z,1.20
2022-12-20T07:38:31.814Z,1.27
2022-12-20T07:41:33.824Z,1.30
2022-12-20T07:44:35.698Z,1.52
2022-12-20T07:47:38.908Z,1.40
2022-12-20T07:50:41.649Z,1.40
2022-12-20T07:53:50.116Z,1.70
2022-12-20T07:56:57.255Z,3.15
2022-12-20T08:00:02.209Z,2.20
2022-12-20T08:03:31.896Z,1.80
2022-12-20T08:06:37.284Z,1.30
2022-12-20T08:09:44.352Z,1.65
2022-12-20T08:12:47.859Z,1.50
2022-12-20T08:15:49.586Z,1.67
2022-12-20T08:18:51.373Z,1.58
2022-12-20T08:21:53.127Z,1.70
2022-12-20T08:24:55.452Z,1.75
2022-12-20T08:27:57.303Z,1.90
2022-12-20T08:31:04.449Z,1.85
2022-12-20T08:34:06.733Z,1.50
2022-12-20T08:37:14.480Z,1.65
2022-12-20T08:40:16.850Z,2.08
2022-12-20T08:43:18.713Z,1.98
2022-12-20T08:46:20.568Z,1.40
2022-12-20T08:49:22.617Z,1.50
2022-12-20T08:52:24.578Z,1.25
2022-12-20T08:55:29.076Z,1.50
2022-12-20T08:58:31.257Z,1.70
2022-12-20T09:01:34.115Z,1.95
2022-12-20T09:04:36.464Z,1.70
2022-12-20T09:07:38.234Z,1.42
2022-12-20T09:10:40.707Z,1.48
2022-12-20T09:13:44.653Z,1.30
2022-12-20T09:16:46.943Z,1.15
2022-12-20T09:19:49.187Z,1.33
2022-12-20T09:22:50.908Z,1.50
2022-12-20T09:25:54.036Z,1.52
2022-12-20T09:28:57.326Z,1.40
2022-12-20T09:31:59.134Z,1.42
2022-12-20T09:35:00.929Z,1.25
2022-12-20T09:38:02.949Z,1.42
2022-12-20T09:41:07.137Z,1.80
2022-12-20T09:44:34.640Z,2.10
2022-12-20T09:47:37.606Z,1.80
2022-12-20T09:51:32.239Z,1.33
2022-12-20T09:54:36.601Z,1.63
2022-12-20T09:57:46.992Z,1.85
2022-12-20T10:00:54.284Z,1.63
2022-12-20T10:03:58.031Z,1.30
2022-12-20T10:10:39.527Z,1.90
2022-12-20T10:13:53.089Z,1.95
2022-12-20T10:17:05.444Z,2.38
2022-12-20T10:20:20.554Z,2.35
2022-12-20T10:23:32.974Z,1.98
2022-12-20T10:26:35.723Z,2.10
2022-12-20T10:29:37.652Z,2.00
2022-12-20T10:32:40.616Z,2.20
2022-12-20T10:35:43.385Z,1.70
2022-12-20T10:38:49.079Z,2.58
2022-12-20T10:41:52.104Z,2.13
2022-12-20T10:44:55.970Z,1.90
2022-12-20T10:48:00.813Z,2.17
2022-12-20T10:51:15.351Z,2.22
2022-12-20T10:54:24.916Z,1.60
2022-12-20T10:57:29.403Z,2.83
2022-12-20T11:00:32.071Z,1.98
2022-12-20T11:03:33.947Z,2.25
2022-12-20T11:06:38.557Z,2.38
2022-12-20T11:09:56.713Z,1.60
2022-12-20T11:13:01.390Z,2.08
2022-12-20T11:16:03.201Z,1.65
2022-12-20T11:19:14.306Z,1.70
2022-12-20T11:22:37.398Z,1.70
2022-12-20T11:26:09.828Z,1.80
2022-12-20T11:29:30.526Z,1.67
2022-12-20T11:32:49.124Z,1.63
2022-12-20T11:36:00.142Z,2.28
2022-12-20T11:39:22.354Z,2.22
2022-12-20T11:42:24.370Z,2.28
2022-12-20T11:46:13.843Z,2.22
2022-12-20T11:49:28.225Z,2.28
2022-12-20T11:52:35.861Z,2.78
2022-12-20T11:55:42.895Z,2.95
2022-12-20T11:59:00.192Z,2.53
2022-12-20T12:02:14.406Z,2.85
2022-12-20T12:05:35.173Z,2.92
2022-12-20T12:08:50.482Z,2.90
2022-12-20T12:12:13.843Z,2.13
2022-12-20T12:15:17.055Z,1.90
2022-12-20T12:21:27.476Z,2.50
2022-12-20T12:24:39.422Z,2.95
2022-12-20T12:27:43.920Z,2.90
2022-12-20T12:30:52.987Z,3.13
2022-12-20T12:34:16.661Z,2.75
2022-12-20T12:37:46.801Z,3.00
2022-12-20T12:41:00.602Z,2.30
2022-12-20T12:44:20.813Z,2.30
2022-12-20T12:47:33.811Z,2.60
2022-12-20T12:50:39.574Z,2.80
2022-12-20T12:53:53.000Z,2.45
2022-12-20T12:57:03.303Z,2.35
2022-12-20T13:00:44.061Z,2.25
2022-12-20T13:03:55.306Z,2.47
2022-12-20T13:06:59.419Z,2.60
2022-12-20T13:10:29.624Z,2.60
2022-12-20T13:13:31.716Z,2.50
2022-12-20T13:17:10.046Z,2.17
2022-12-20T13:19:56.279Z,2.00
2022-12-20T13:23:13.178Z,1.98
2022-12-20T13:26:48.476Z,2.30
2022-12-20T13:29:59.845Z,1.92
2022-12-20T13:33:24.047Z,2.33
2022-12-20T13:36:49.110Z,2.50
2022-12-20T13:39:51.020Z,3.00
2022-12-20T13:42:56.998Z,3.95
2022-12-20T13:46:17.176Z,4.03
2022-12-20T13:49:34.735Z,6.15
2022-12-20T13:52:43.816Z,8.95
2022-12-20T13:55:46.019Z,6.82
2022-12-20T13:58:47.947Z,4.38
2022-12-20T14:01:52.813Z,3.00
2022-12-20T14:05:02.987Z,2.53
2022-12-20T14:08:20.804Z,2.10
2022-12-20T14:11:27.842Z,2.47
2022-12-20T14:14:29.592Z,2.40
2022-12-20T14:17:33.289Z,2.42
2022-12-20T14:20:37.876Z,2.45
2022-12-20T14:23:47.609Z,2.47
2022-12-20T14:26:52.794Z,2.47
2022-12-20T14:29:54.992Z,2.40
2022-12-20T14:32:57.774Z,1.90
2022-12-20T14:36:09.517Z,2.30
2022-12-20T14:39:34.802Z,2.63
2022-12-20T14:42:38.924Z,2.03
2022-12-20T14:45:40.868Z,1.90
2022-12-20T14:48:43.634Z,1.95
2022-12-20T14:51:46.971Z,1.90
2022-12-20T14:55:10.393Z,1.95
2022-12-20T14:58:35.302Z,2.97
2022-12-20T15:01:41.859Z,2.30
2022-12-20T15:04:45.749Z,1.95
2022-12-20T15:07:48.425Z,2.30
2022-12-20T15:10:50.144Z,2.40
2022-12-20T15:13:54.634Z,3.75
2022-12-20T15:16:56.667Z,3.22
2022-12-20T15:19:59.730Z,2.65
2022-12-20T15:23:02.145Z,3.13
2022-12-20T15:26:04.238Z,2.70
2022-12-20T15:29:07.038Z,3.25
2022-12-20T15:32:29.611Z,2.35
2022-12-20T15:35:31.773Z,3.00
2022-12-20T15:41:56.733Z,2.28
2022-12-20T15:44:58.805Z,3.05
2022-12-20T15:48:00.786Z,3.33
2022-12-20T15:51:07.619Z,2.75
2022-12-20T15:54:27.655Z,3.40
2022-12-20T15:57:30.971Z,3.95
2022-12-20T16:00:32.995Z,3.97
2022-12-20T16:03:35.205Z,3.67
2022-12-20T16:06:37.066Z,3.85
2022-12-20T16:09:39.674Z,3.85
2022-12-20T16:12:42.339Z,4.60
2022-12-20T16:15:44.234Z,4.00
2022-12-20T16:18:46.506Z,4.07
2022-12-20T16:21:50.771Z,3.95
2022-12-20T16:24:52.512Z,4.38
2022-12-20T16:27:54.493Z,4.25
2022-12-20T16:30:56.311Z,3.58
2022-12-20T16:34:00.498Z,2.58
2022-12-20T16:37:02.614Z,2.75
2022-12-20T16:40:04.852Z,2.80
2022-12-20T16:43:14.473Z,2.60
2022-12-20T16:46:19.088Z,2.97
2022-12-20T16:49:21.346Z,2.75
2022-12-20T16:52:23.689Z,3.55
2022-12-20T16:55:27.379Z,3.10
2022-12-20T16:58:59.875Z,2.80
2022-12-20T17:01:57.141Z,2.88
2022-12-20T17:04:59.780Z,3.28
2022-12-20T17:08:01.832Z,2.70
2022-12-20T17:11:09.125Z,2.72
2022-12-20T17:14:13.780Z,2.88
2022-12-20T17:17:15.929Z,3.40
2022-12-20T17:20:22.539Z,3.15
2022-12-20T17:26:43.942Z,3.50
2022-12-20T17:29:45.873Z,3.60
2022-12-20T17:32:48.280Z,4.20
2022-12-20T17:35:50.046Z,3.78
2022-12-20T17:38:52.058Z,3.80
2022-12-20T17:41:55.434Z,3.72
2022-12-20T17:47:59.548Z,3.47
2022-12-20T17:51:01.720Z,3.17
2022-12-20T17:54:03.623Z,2.95
2022-12-20T17:57:05.484Z,2.78
2022-12-20T18:00:08.024Z,2.97
2022-12-20T18:03:30.289Z,3.23
2022-12-20T18:06:33.838Z,2.58
2022-12-20T18:09:36.227Z,3.28
2022-12-20T18:12:39.345Z,2.88
2022-12-20T18:15:41.112Z,3.63
2022-12-20T18:18:43.432Z,3.30
2022-12-20T18:21:45.671Z,3.45
2022-12-20T18:24:47.434Z,3.33
2022-12-20T18:27:49.194Z,3.80
2022-12-20T18:30:50.942Z,3.03
2022-12-20T18:33:57.816Z,3.30
2022-12-20T18:37:01.935Z,3.38
2022-12-20T18:40:04.099Z,3.83
2022-12-20T18:43:06.603Z,3.92
2022-12-20T18:46:12.094Z,4.03
2022-12-20T18:49:14.085Z,4.07
2022-12-20T18:52:16.035Z,3.90
2022-12-20T18:55:17.779Z,4.13
2022-12-20T18:58:19.759Z,4.40
2022-12-20T19:01:27.732Z,3.80
2022-12-20T19:04:29.751Z,3.90
2022-12-20T19:07:32.451Z,4.13
2022-12-20T19:10:34.492Z,3.95
2022-12-20T19:13:37.877Z,3.90
2022-12-20T19:19:42.127Z,5.10
2022-12-20T19:22:43.928Z,4.90
2022-12-20T19:25:45.689Z,5.13
2022-12-20T19:28:47.964Z,5.03
2022-12-20T19:31:50.260Z,7.35
2022-12-20T19:34:52.058Z,6.45
2022-12-20T19:37:53.815Z,5.85
2022-12-20T19:40:55.732Z,5.80
2022-12-20T19:43:58.259Z,5.38
2022-12-20T19:47:06.241Z,5.60
2022-12-20T19:50:09.201Z,5.50
2022-12-20T19:53:11.514Z,5.85
2022-12-20T19:56:16.761Z,5.30
2022-12-20T19:59:18.661Z,5.90
2022-12-20T20:02:20.639Z,5.60
2022-12-20T20:05:22.753Z,5.82
2022-12-20T20:08:25.548Z,5.07
2022-12-20T20:11:27.953Z,5.03
2022-12-20T20:14:30.448Z,4.60
2022-12-20T20:17:32.279Z,4.30
2022-12-20T20:20:34.973Z,4.35
2022-12-20T20:23:37.698Z,4.60
2022-12-20T20:26:39.541Z,4.65
2022-12-20T20:29:41.429Z,4.88
2022-12-20T20:32:43.345Z,4.72
2022-12-20T20:35:54.720Z,4.90
2022-12-20T20:38:57.264Z,4.55
2022-12-20T20:41:59.224Z,4.83
2022-12-20T20:45:00.974Z,4.95
2022-12-20T20:48:06.081Z,4.57
2022-12-20T20:51:08.440Z,4.78
2022-12-20T20:54:10.573Z,4.93
2022-12-20T20:57:12.324Z,4.70
2022-12-20T21:00:14.684Z,4.88
2022-12-20T21:03:16.500Z,4.85
2022-12-20T21:09:40.842Z,4.28
2022-12-20T21:12:43.205Z,4.17
2022-12-20T21:15:46.532Z,4.43
2022-12-20T21:21:54.487Z,4.00
2022-12-20T21:24:57.307Z,4.72
2022-12-20T21:27:59.452Z,4.88
2022-12-20T21:31:03.060Z,4.47
2022-12-20T21:34:05.244Z,4.63
2022-12-20T21:37:07.305Z,5.47
2022-12-20T21:40:10.099Z,4.93
2022-12-20T21:43:11.860Z,5.25
2022-12-20T21:46:14.116Z,5.03
2022-12-20T21:49:16.160Z,5.63
2022-12-20T21:52:18.144Z,5.45
2022-12-20T21:55:20.491Z,5.63
2022-12-20T21:58:26.408Z,6.15
2022-12-20T22:01:30.218Z,6.15
2022-12-20T22:04:33.245Z,6.65
2022-12-20T22:07:35.094Z,7.28
2022-12-20T22:10:36.892Z,5.95
2022-12-20T22:13:41.993Z,6.18
2022-12-20T22:16:44.283Z,5.80
2022-12-20T22:19:46.282Z,5.85
2022-12-20T22:22:48.181Z,5.68
2022-12-20T22:25:50.111Z,5.47
2022-12-20T22:28:58.878Z,5.50
2022-12-20T22:32:00.720Z,5.25
2022-12-20T22:35:02.697Z,5.22
2022-12-20T22:38:06.002Z,5.30
2022-12-20T22:41:19.525Z,4.60
2022-12-20T22:44:21.329Z,4.85
2022-12-20T22:47:23.078Z,4.63
2022-12-20T22:50:25.081Z,4.47
2022-12-20T22:53:27.376Z,4.40
2022-12-20T22:56:29.954Z,4.35
2022-12-20T22:59:33.335Z,3.92
2022-12-20T23:02:35.538Z,3.47
2022-12-20T23:05:37.397Z,3.25
2022-12-20T23:08:40.163Z,3.42
2022-12-20T23:12:00.798Z,3.60
2022-12-20T23:15:21.039Z,3.58
2022-12-20T23:18:23.128Z,3.90
2022-12-20T23:21:44.030Z,3.17
2022-12-20T23:24:46.869Z,3.13
2022-12-20T23:27:50.133Z,3.10
2022-12-20T23:30:51.905Z,3.33
2022-12-20T23:33:53.910Z,3.67
2022-12-20T23:36:55.673Z,3.50
2022-12-20T23:39:57.482Z,3.63
2022-12-20T23:42:59.394Z,3.80
2022-12-20T23:46:11.717Z,3.70
2022-12-20T23:49:13.770Z,4.03
2022-12-20T23:52:15.887Z,4.07
2022-12-20T23:55:17.682Z,4.20
2022-12-20T23:58:19.762Z,4.40
